createdAt,value
2019-06-07T00:00:32.182Z,99697.44
2019-06-07T00:02:40.295Z,99698.13
2019-06-07T00:05:10.007Z,99698.61
2019-06-07T00:07:39.323Z,99693.36
2019-06-07T00:10:09.510Z,99697.13
2019-06-07T00:12:38.445Z,99695.06
2019-06-07T00:15:11.699Z,99698.09
2019-06-07T00:17:37.449Z,99704.66
2019-06-07T00:20:08.497Z,99698.09
2019-06-07T00:22:36.819Z,99694.81
2019-06-07T00:25:05.906Z,99694.70
2019-06-07T00:27:34.419Z,99692.34
2019-06-07T00:30:29.733Z,99684.99
2019-06-07T00:32:34.517Z,99685.86
2019-06-07T00:35:03.638Z,99681.63
2019-06-07T00:37:32.133Z,99692.51
2019-06-07T00:40:13.893Z,99695.59
2019-06-07T00:42:31.111Z,99693.38
2019-06-07T00:44:59.490Z,99687.02
2019-06-07T00:47:28.057Z,99684.93
2019-06-07T00:49:56.436Z,99686.54
2019-06-07T00:53:11.507Z,99684.98
2019-06-07T00:54:55.654Z,99687.87
2019-06-07T00:57:24.549Z,99688.41
2019-06-07T00:59:53.446Z,99691.16
2019-06-07T01:02:25.912Z,99694.50
2019-06-07T01:04:52.451Z,99692.08
2019-06-07T01:07:21.973Z,99698.98
2019-06-07T01:09:51.262Z,99699.59
2019-06-07T01:12:21.556Z,99703.73
2019-06-07T01:14:50.339Z,99705.53
2019-06-07T01:17:40.098Z,99701.78
2019-06-07T01:19:55.504Z,99705.02
2019-06-07T01:22:28.895Z,99708.06
2019-06-07T01:24:54.248Z,99702.26
2019-06-07T01:27:25.386Z,99700.83
2019-06-07T01:29:53.254Z,99700.41
2019-06-07T01:32:24.686Z,99702.12
2019-06-07T01:34:52.001Z,99704.30
2019-06-07T01:37:25.007Z,99707.81
2019-06-07T01:39:51.066Z,99704.58
2019-06-07T01:42:20.417Z,99704.56
2019-06-07T01:44:49.725Z,99705.16
2019-06-07T01:47:20.463Z,99701.30
2019-06-07T01:49:48.698Z,99703.35
2019-06-07T01:52:17.088Z,99700.08
2019-06-07T01:54:58.614Z,99695.95
2019-06-07T01:57:36.208Z,99709.41
2019-06-07T01:59:46.116Z,99707.12
2019-06-07T02:02:14.490Z,99709.55
2019-06-07T02:04:43.003Z,99708.31
2019-06-07T02:07:11.468Z,99710.64
2019-06-07T02:09:39.854Z,99710.38
2019-06-07T02:12:25.054Z,99709.15
2019-06-07T02:14:38.777Z,99712.20
2019-06-07T02:17:07.257Z,99715.72
2019-06-07T02:19:35.742Z,99718.48
2019-06-07T02:22:04.275Z,99712.32
2019-06-07T02:24:35.817Z,99712.08
2019-06-07T02:27:03.155Z,99716.20
2019-06-07T02:29:33.535Z,99713.65
2019-06-07T02:32:02.106Z,99706.27
2019-06-07T02:34:35.929Z,99712.55
2019-06-07T02:37:01.087Z,99715.23
2019-06-07T02:39:34.387Z,99716.19
2019-06-07T02:42:00.157Z,99713.28
2019-06-07T02:44:34.924Z,99717.77
2019-06-07T02:46:59.012Z,99725.51
2019-06-07T02:49:31.354Z,99726.47
2019-06-07T02:51:57.867Z,99729.96
2019-06-07T02:54:27.382Z,99726.72
2019-06-07T02:56:58.947Z,99730.08
2019-06-07T02:59:54.886Z,99730.95
2019-06-07T03:01:57.722Z,99731.41
2019-06-07T03:04:29.525Z,99738.20
2019-06-07T03:06:58.985Z,99744.73
2019-06-07T03:09:30.910Z,99748.70
2019-06-07T03:12:00.998Z,99751.95
2019-06-07T03:14:35.254Z,99759.20
2019-06-07T03:17:12.102Z,99762.85
2019-06-07T03:19:43.774Z,99763.84
2019-06-07T03:22:12.274Z,99768.92
2019-06-07T03:24:44.190Z,99769.87
2019-06-07T03:27:38.891Z,99775.45
2019-06-07T03:29:44.848Z,99770.96
2019-06-07T03:32:13.361Z,99776.31
2019-06-07T03:34:43.723Z,99775.45
2019-06-07T03:37:12.223Z,99772.92
2019-06-07T03:39:41.154Z,99774.72
2019-06-07T03:42:09.804Z,99775.31
2019-06-07T03:44:41.343Z,99774.34
2019-06-07T03:47:08.773Z,99772.41
2019-06-07T03:49:41.706Z,99772.18
2019-06-07T03:52:07.637Z,99782.97
2019-06-07T03:54:39.405Z,99783.45
2019-06-07T03:57:06.482Z,99781.99
2019-06-07T03:59:38.599Z,99783.31
2019-06-07T04:02:05.238Z,99780.91
2019-06-07T04:04:36.983Z,99792.15
2019-06-07T04:07:04.342Z,99786.95
2019-06-07T04:09:35.656Z,99784.89
2019-06-07T04:12:03.293Z,99792.99
2019-06-07T04:14:32.874Z,99789.02
2019-06-07T04:17:01.491Z,99794.01
2019-06-07T04:19:32.307Z,99792.30
2019-06-07T04:22:00.339Z,99791.59
2019-06-07T04:24:28.814Z,99787.59
2019-06-07T04:26:57.409Z,99785.78
2019-06-07T04:29:33.123Z,99789.75
2019-06-07T04:31:56.484Z,99788.77
2019-06-07T04:34:24.993Z,99798.70
2019-06-07T04:36:59.156Z,99789.63
2019-06-07T04:39:24.565Z,99790.06
2019-06-07T04:41:55.008Z,99793.34
2019-06-07T04:44:24.881Z,99800.34
2019-06-07T04:46:55.992Z,99796.69
2019-06-07T04:49:24.972Z,99796.44
2019-06-07T04:51:55.451Z,99794.34
2019-06-07T04:54:24.183Z,99795.73
2019-06-07T04:56:52.653Z,99797.98
2019-06-07T05:00:00.973Z,99796.17
2019-06-07T05:01:51.479Z,99799.86
2019-06-07T05:04:20.285Z,99790.33
2019-06-07T05:06:48.756Z,99787.61
2019-06-07T05:09:17.335Z,99793.63
2019-06-07T05:11:45.919Z,99796.33
2019-06-07T05:14:14.339Z,99800.30
2019-06-07T05:16:44.271Z,99803.94
2019-06-07T05:19:13.193Z,99797.34
2019-06-07T05:22:01.619Z,99800.46
2019-06-07T05:24:12.289Z,99805.14
2019-06-07T05:26:42.790Z,99798.77
2019-06-07T05:29:11.283Z,99811.67
2019-06-07T05:31:44.950Z,99811.34
2019-06-07T05:34:11.471Z,99807.34
2019-06-07T05:36:44.310Z,99804.36
2019-06-07T05:39:10.211Z,99810.84
2019-06-07T05:41:41.175Z,99815.30
2019-06-07T05:44:12.693Z,99821.41
2019-06-07T05:46:41.970Z,99816.72
2019-06-07T05:49:09.591Z,99813.69
2019-06-07T05:51:41.522Z,99818.06
2019-06-07T05:54:08.413Z,99813.95
2019-06-07T05:56:39.368Z,99817.77
2019-06-07T05:59:07.329Z,99822.09
2019-06-07T06:01:53.404Z,99821.30
2019-06-07T06:04:06.356Z,99824.20
2019-06-07T06:06:36.373Z,99830.25
2019-06-07T06:09:13.920Z,99825.97
2019-06-07T06:11:49.394Z,99832.23
2019-06-07T06:14:08.326Z,99837.89
2019-06-07T06:16:37.235Z,99835.70
2019-06-07T06:19:05.856Z,99831.47
2019-06-07T06:21:34.318Z,99838.95
2019-06-07T06:24:03.003Z,99840.97
2019-06-07T06:26:31.584Z,99843.61
2019-06-07T06:29:00.054Z,99847.43
2019-06-07T06:31:28.615Z,99849.69
2019-06-07T06:33:57.094Z,99855.80
2019-06-07T06:36:25.513Z,99857.47
2019-06-07T06:38:54.106Z,99859.73
2019-06-07T06:41:22.716Z,99865.78
2019-06-07T06:43:52.655Z,99862.90
2019-06-07T06:46:38.282Z,99867.69
2019-06-07T06:48:55.296Z,99871.14
2019-06-07T06:51:22.318Z,99878.94
2019-06-07T06:53:52.568Z,99875.48
2019-06-07T06:56:21.190Z,99873.98
2019-06-07T06:59:27.255Z,99881.70
2019-06-07T07:01:19.982Z,99886.66
2019-06-07T07:04:07.316Z,99885.39
2019-06-07T07:06:27.128Z,99884.53
2019-06-07T07:08:53.422Z,99884.77
2019-06-07T07:11:23.147Z,99883.80
2019-06-07T07:13:56.342Z,99882.86
2019-06-07T07:16:22.540Z,99882.86
2019-06-07T07:18:54.339Z,99878.47
2019-06-07T07:21:21.410Z,99879.23
2019-06-07T07:24:14.755Z,99874.33
2019-06-07T07:26:20.534Z,99879.47
2019-06-07T07:28:51.770Z,99880.06
2019-06-07T07:31:19.460Z,99877.41
2019-06-07T07:36:37.457Z,99877.70
2019-06-07T07:38:51.839Z,99881.52
2019-06-07T07:41:19.140Z,99879.16
2019-06-07T07:43:54.456Z,99884.72
2019-06-07T07:46:28.956Z,99878.20
2019-06-07T07:48:48.622Z,99881.48
2019-06-07T07:51:17.731Z,99884.20
2019-06-07T07:53:54.368Z,99881.56
2019-06-07T07:56:16.618Z,99883.52
2019-06-07T07:58:49.311Z,99880.41
2019-06-07T08:01:15.539Z,99881.53
2019-06-07T08:03:44.017Z,99876.27
2019-06-07T08:06:12.591Z,99879.44
2019-06-07T08:08:41.330Z,99878.55
2019-06-07T08:11:09.796Z,99879.03
2019-06-07T08:13:38.365Z,99879.62
2019-06-07T08:16:14.100Z,99879.87
2019-06-07T08:18:37.184Z,99878.80
2019-06-07T08:21:23.686Z,99887.91
2019-06-07T08:23:36.039Z,99896.67
2019-06-07T08:26:04.460Z,99892.02
2019-06-07T08:28:32.934Z,99889.64
2019-06-07T08:31:06.743Z,99896.05
2019-06-07T08:33:31.823Z,99898.47
2019-06-07T08:36:14.092Z,99898.31
2019-06-07T08:38:47.031Z,99907.40
2019-06-07T08:41:11.057Z,99906.56
2019-06-07T08:43:31.589Z,99907.78
2019-06-07T08:46:06.852Z,99909.73
2019-06-07T08:48:30.612Z,99908.20
2019-06-07T08:51:06.314Z,99905.70
2019-06-07T08:53:29.391Z,99904.26
2019-06-07T08:56:05.628Z,99911.91
2019-06-07T08:58:28.289Z,99907.88
2019-06-07T09:01:03.897Z,99909.04
2019-06-07T09:03:27.088Z,99911.09
2019-06-07T09:05:57.175Z,99908.75
2019-06-07T09:08:30.381Z,99912.13
2019-06-07T09:10:58.779Z,99907.77
2019-06-07T09:13:26.856Z,99908.59
2019-06-07T09:15:57.760Z,99901.19
2019-06-07T09:18:44.415Z,99906.23
2019-06-07T09:20:59.283Z,99900.52
2019-06-07T09:23:26.676Z,99906.25
2019-06-07T09:26:04.832Z,99913.84
2019-06-07T09:28:26.418Z,99910.30
2019-06-07T09:30:57.107Z,99906.58
2019-06-07T09:33:25.491Z,99899.69
2019-06-07T09:35:54.315Z,99900.86
2019-06-07T09:38:26.292Z,99898.52
2019-06-07T09:40:53.519Z,99903.57
2019-06-07T09:45:52.284Z,99905.93
2019-06-07T09:49:01.479Z,99906.25
2019-06-07T09:50:51.388Z,99896.82
2019-06-07T09:53:23.107Z,99906.81
2019-06-07T09:55:50.361Z,99898.89
2019-06-07T09:58:50.423Z,99889.44
2019-06-07T10:00:49.267Z,99896.86
2019-06-07T10:03:22.360Z,99893.66
2019-06-07T10:05:48.340Z,99901.38
2019-06-07T10:09:31.608Z,99899.04
2019-06-07T10:10:47.197Z,99898.38
2019-06-07T10:13:15.709Z,99897.86
2019-06-07T10:15:44.194Z,99898.34
2019-06-07T10:18:12.693Z,99895.98
2019-06-07T10:20:41.212Z,99896.33
2019-06-07T10:23:10.178Z,99894.31
2019-06-07T10:25:38.803Z,99892.80
2019-06-07T10:28:08.237Z,99898.12
2019-06-07T10:30:36.885Z,99900.16
2019-06-07T10:33:06.859Z,99900.14
2019-06-07T10:35:35.572Z,99901.64
2019-06-07T10:38:04.562Z,99897.62
2019-06-07T10:40:33.330Z,99893.58
2019-06-07T10:43:02.928Z,99897.62
2019-06-07T10:45:31.737Z,99895.61
2019-06-07T10:48:01.499Z,99891.29
2019-06-07T10:50:30.466Z,99887.84
2019-06-07T10:52:59.035Z,99887.59
2019-06-07T10:55:27.502Z,99878.03
2019-06-07T10:57:56.084Z,99880.89
2019-06-07T11:00:24.973Z,99878.67
2019-06-07T11:02:55.286Z,99881.26
2019-06-07T11:05:23.971Z,99868.38
2019-06-07T11:07:52.513Z,99866.39
2019-06-07T11:10:21.016Z,99861.70
2019-06-07T11:12:49.649Z,99866.34
2019-06-07T11:15:18.201Z,99859.19
2019-06-07T11:17:46.871Z,99860.95
2019-06-07T11:20:18.520Z,99858.22
2019-06-07T11:22:47.210Z,99858.44
2019-06-07T11:25:15.878Z,99856.84
2019-06-07T11:27:44.480Z,99846.70
2019-06-07T11:30:14.625Z,99849.87
2019-06-07T11:32:43.302Z,99844.19
2019-06-07T11:35:15.322Z,99845.31
2019-06-07T11:37:43.879Z,99848.55
2019-06-07T11:40:35.521Z,99839.86
2019-06-07T11:42:43.285Z,99828.53
2019-06-07T11:45:12.914Z,99828.19
2019-06-07T11:47:42.654Z,99820.33
2019-06-07T11:50:11.950Z,99816.63
2019-06-07T11:52:40.683Z,99813.30
2019-06-07T11:55:11.371Z,99808.14
2019-06-07T11:57:40.026Z,99814.49
2019-06-07T12:00:11.702Z,99813.61
2019-06-07T12:02:40.432Z,99813.59
2019-06-07T12:05:12.632Z,99805.23
2019-06-07T12:07:40.059Z,99805.59
2019-06-07T12:10:10.589Z,99800.73
2019-06-07T12:12:39.479Z,99801.44
2019-06-07T12:15:10.937Z,99796.72
2019-06-07T12:17:39.713Z,99794.33
2019-06-07T12:20:10.774Z,99800.73
2019-06-07T12:22:39.499Z,99797.95
2019-06-07T12:25:08.386Z,99795.64
2019-06-07T12:27:36.946Z,99794.69
2019-06-07T12:30:11.113Z,99792.13
2019-06-07T12:32:36.289Z,99786.57
2019-06-07T12:35:06.359Z,99778.84
2019-06-07T12:37:43.774Z,99785.88
2019-06-07T12:40:05.911Z,99782.44
2019-06-07T12:42:34.496Z,99785.45
2019-06-07T12:45:03.756Z,99781.20
2019-06-07T12:47:33.126Z,99782.59
2019-06-07T12:50:01.817Z,99781.59
2019-06-07T12:52:30.770Z,99775.14
2019-06-07T12:54:59.417Z,99786.20
2019-06-07T12:57:28.103Z,99776.05
2019-06-07T12:59:57.410Z,99777.59
2019-06-07T13:02:25.987Z,99773.94
2019-06-07T13:04:54.698Z,99768.80
2019-06-07T13:07:24.289Z,99766.48
2019-06-07T13:09:53.102Z,99765.14
2019-06-07T13:12:21.883Z,99758.63
2019-06-07T13:14:50.414Z,99759.58
2019-06-07T13:17:20.344Z,99761.70
2019-06-07T13:19:49.194Z,99762.14
2019-06-07T13:22:18.299Z,99754.72
2019-06-07T13:24:47.049Z,99759.27
2019-06-07T13:27:16.215Z,99757.27
2019-06-07T13:29:44.885Z,99760.47
2019-06-07T13:32:13.557Z,99754.17
2019-06-07T13:34:42.198Z,99749.52
2019-06-07T13:37:10.756Z,99752.62
2019-06-07T13:39:39.116Z,99751.58
2019-06-07T13:42:07.982Z,99753.46
2019-06-07T13:44:36.546Z,99749.31
2019-06-07T13:47:05.244Z,99752.36
2019-06-07T13:49:33.930Z,99740.77
2019-06-07T13:52:02.567Z,99742.70
2019-06-07T13:54:31.067Z,99740.41
2019-06-07T13:57:02.808Z,99735.61
2019-06-07T13:59:30.150Z,99730.86
2019-06-07T14:01:58.778Z,99726.40
2019-06-07T14:04:27.320Z,99730.20
2019-06-07T14:06:56.060Z,99725.89
2019-06-07T14:09:25.246Z,99728.95
2019-06-07T14:11:53.936Z,99730.40
2019-06-07T14:14:24.565Z,99728.45
2019-06-07T14:16:53.393Z,99736.36
2019-06-07T14:19:22.660Z,99727.89
2019-06-07T14:21:51.597Z,99710.22
2019-06-07T14:24:20.987Z,99723.48
2019-06-07T14:27:09.188Z,99718.35
2019-06-07T14:29:37.902Z,99725.05
2019-06-07T14:32:07.166Z,99719.78
2019-06-07T14:34:36.225Z,99717.64
2019-06-07T14:37:05.360Z,99713.34
2019-06-07T14:39:33.857Z,99719.64
2019-06-07T14:42:09.045Z,99714.80
2019-06-07T14:44:34.009Z,99717.65
2019-06-07T14:47:02.866Z,99715.66
2019-06-07T14:49:32.690Z,99715.66
2019-06-07T14:52:01.550Z,99717.00
2019-06-07T14:54:33.489Z,99717.23
2019-06-07T14:57:03.305Z,99710.05
2019-06-07T14:59:32.728Z,99710.05
2019-06-07T15:02:01.692Z,99722.91
2019-06-07T15:04:30.771Z,99722.91
2019-06-07T15:06:59.607Z,99725.64
2019-06-07T15:09:29.073Z,99725.64
2019-06-07T15:11:57.682Z,99715.45
2019-06-07T15:14:27.309Z,99719.02
2019-06-07T15:16:55.958Z,99718.35
2019-06-07T15:19:24.657Z,99720.66
2019-06-07T15:21:53.265Z,99719.64
2019-06-07T15:24:21.828Z,99715.59
2019-06-07T15:26:50.489Z,99709.03
2019-06-07T15:29:19.163Z,99709.03
2019-06-07T15:31:47.754Z,99714.45
2019-06-07T15:34:16.462Z,99721.59
2019-06-07T15:36:45.128Z,99719.94
2019-06-07T15:39:13.624Z,99716.67
2019-06-07T15:41:42.123Z,99721.30
2019-06-07T15:44:10.969Z,99726.76
2019-06-07T15:46:40.346Z,99727.28
2019-06-07T15:49:09.193Z,99729.39
2019-06-07T15:51:38.644Z,99730.25
2019-06-07T15:54:07.933Z,99724.00
2019-06-07T15:56:37.009Z,99724.41
2019-06-07T15:59:05.685Z,99729.91
2019-06-07T16:01:35.576Z,99726.95
2019-06-07T16:04:04.648Z,99725.75
2019-06-07T16:06:34.296Z,99724.34
2019-06-07T16:09:04.605Z,99729.05
2019-06-07T16:11:34.565Z,99728.59
2019-06-07T16:14:06.294Z,99734.93
2019-06-07T16:16:35.069Z,99737.76
2019-06-07T16:19:03.925Z,99737.76
2019-06-07T16:21:33.291Z,99730.98
2019-06-07T16:24:02.110Z,99738.48
2019-06-07T16:26:30.596Z,99728.58
2019-06-07T16:28:59.404Z,99728.48
2019-06-07T16:31:27.916Z,99736.98
2019-06-07T16:33:56.486Z,99731.36
2019-06-07T16:36:25.001Z,99721.41
2019-06-07T16:38:53.608Z,99719.92
2019-06-07T16:41:23.072Z,99717.77
2019-06-07T16:43:51.593Z,99717.77
2019-06-07T16:46:21.368Z,99719.58
2019-06-07T16:48:50.371Z,99716.70
2019-06-07T16:51:18.995Z,99716.70
2019-06-07T16:53:48.586Z,99720.23
2019-06-07T16:56:17.281Z,99718.52
2019-06-07T16:58:46.519Z,99718.05
2019-06-07T17:01:15.629Z,99721.58
2019-06-07T17:03:45.577Z,99722.63
2019-06-07T17:06:14.307Z,99711.23
2019-06-07T17:08:44.270Z,99714.43
2019-06-07T17:11:12.976Z,99716.38
2019-06-07T17:13:42.338Z,99712.88
2019-06-07T17:16:11.125Z,99710.59
2019-06-07T17:18:40.870Z,99710.59
2019-06-07T17:21:09.620Z,99713.13
2019-06-07T17:23:39.169Z,99715.04
2019-06-07T17:26:08.080Z,99714.53
2019-06-07T17:28:36.641Z,99716.44
2019-06-07T17:31:05.123Z,99710.28
2019-06-07T17:33:33.735Z,99714.13
2019-06-07T17:36:02.206Z,99714.62
2019-06-07T17:38:30.784Z,99712.64
2019-06-07T17:40:59.352Z,99716.24
2019-06-07T17:43:27.783Z,99718.29
2019-06-07T17:45:56.474Z,99718.30
2019-06-07T17:48:25.045Z,99721.70
2019-06-07T17:50:53.703Z,99721.95
2019-06-07T17:53:22.248Z,99722.14
2019-06-07T17:55:50.839Z,99718.84
2019-06-07T17:58:19.716Z,99721.97
2019-06-07T18:00:51.085Z,99716.35
2019-06-07T18:03:19.957Z,99712.84
2019-06-07T18:05:49.276Z,99723.44
2019-06-07T18:08:17.982Z,99726.63
2019-06-07T18:10:47.854Z,99738.30
2019-06-07T18:13:16.567Z,99733.98
2019-06-07T18:15:46.482Z,99740.14
2019-06-07T18:18:16.440Z,99736.95
2019-06-07T18:20:45.226Z,99744.78
2019-06-07T18:23:13.772Z,99738.68
2019-06-07T18:25:42.285Z,99741.94
2019-06-07T18:28:10.971Z,99746.33
2019-06-07T18:30:39.460Z,99746.42
2019-06-07T18:33:08.121Z,99751.63
2019-06-07T18:35:37.004Z,99761.27
2019-06-07T18:38:05.490Z,99764.34
2019-06-07T18:40:34.133Z,99768.19
2019-06-07T18:43:03.015Z,99766.38
2019-06-07T18:45:31.580Z,99774.05
2019-06-07T18:48:00.172Z,99783.38
2019-06-07T18:50:28.764Z,99791.22
2019-06-07T18:52:59.021Z,99797.32
2019-06-07T18:55:27.842Z,99800.81
2019-06-07T18:57:56.632Z,99801.35
2019-06-07T19:00:25.810Z,99809.67
2019-06-07T19:02:55.992Z,99815.63
2019-06-07T19:05:25.593Z,99814.60
2019-06-07T19:07:54.688Z,99821.69
2019-06-07T19:10:23.796Z,99818.64
2019-06-07T19:12:53.119Z,99819.05
2019-06-07T19:15:23.993Z,99823.78
2019-06-07T19:17:53.899Z,99827.80
2019-06-07T19:20:23.290Z,99833.80
2019-06-07T19:22:52.098Z,99828.27
2019-06-07T19:25:21.178Z,99834.26
2019-06-07T19:27:50.635Z,99834.69
2019-06-07T19:30:19.360Z,99850.71
2019-06-07T19:32:49.732Z,99847.84
2019-06-07T19:35:18.422Z,99849.02
2019-06-07T19:37:48.056Z,99847.34
2019-06-07T19:40:18.302Z,99849.52
2019-06-07T19:42:47.132Z,99846.99
2019-06-07T19:45:29.855Z,99849.70
2019-06-07T19:47:46.754Z,99845.47
2019-06-07T19:50:17.476Z,99843.11
2019-06-07T19:52:46.782Z,99839.43
2019-06-07T19:55:16.051Z,99845.66
2019-06-07T19:57:44.743Z,99839.09
2019-06-07T20:00:14.669Z,99836.97
2019-06-07T20:02:44.409Z,99837.23
2019-06-07T20:05:15.189Z,99838.82
2019-06-07T20:07:43.819Z,99842.53
2019-06-07T20:10:12.799Z,99842.19
2019-06-07T20:12:41.381Z,99842.53
2019-06-07T20:15:27.138Z,99845.83
2019-06-07T20:17:40.487Z,99845.06
2019-06-07T20:20:09.394Z,99836.06
2019-06-07T20:22:37.904Z,99842.06
2019-06-07T20:25:07.025Z,99838.56
2019-06-07T20:27:36.119Z,99832.00
2019-06-07T20:30:06.108Z,99849.63
2019-06-07T20:32:35.015Z,99842.38
2019-06-07T20:35:04.093Z,99849.54
2019-06-07T20:37:32.612Z,99855.87
2019-06-07T20:40:12.970Z,99856.58
2019-06-07T20:42:32.380Z,99853.52
2019-06-07T20:45:02.092Z,99854.83
2019-06-07T20:47:30.858Z,99855.23
2019-06-07T20:50:00.055Z,99854.36
2019-06-07T20:52:28.837Z,99858.53
2019-06-07T20:54:58.427Z,99855.81
2019-06-07T20:57:27.118Z,99856.41
2019-06-07T20:59:55.603Z,99850.58
2019-06-07T21:02:23.970Z,99851.55
2019-06-07T21:04:52.383Z,99853.30
2019-06-07T21:07:20.862Z,99862.55
2019-06-07T21:09:49.388Z,99851.33
2019-06-07T21:12:17.871Z,99854.66
2019-06-07T21:14:46.650Z,99855.45
2019-06-07T21:17:15.124Z,99857.25
2019-06-07T21:19:43.720Z,99854.63
2019-06-07T21:22:12.260Z,99861.30
2019-06-07T21:24:40.631Z,99855.39
2019-06-07T21:27:09.538Z,99855.09
2019-06-07T21:29:38.124Z,99861.18
2019-06-07T21:32:07.526Z,99860.78
2019-06-07T21:34:36.293Z,99866.03
2019-06-07T21:37:05.656Z,99856.07
2019-06-07T21:39:34.198Z,99861.30
2019-06-07T21:42:04.084Z,99859.64
2019-06-07T21:44:32.985Z,99857.55
2019-06-07T21:47:02.088Z,99861.89
2019-06-07T21:49:30.932Z,99866.61
2019-06-07T21:51:59.432Z,99859.51
2019-06-07T21:54:28.353Z,99858.49
2019-06-07T21:56:56.842Z,99859.95
2019-06-07T21:59:25.345Z,99861.39
2019-06-07T22:01:53.766Z,99859.84
2019-06-07T22:04:22.356Z,99856.67
2019-06-07T22:06:51.245Z,99855.02
2019-06-07T22:09:19.958Z,99857.81
2019-06-07T22:11:48.572Z,99855.89
2019-06-07T22:14:16.919Z,99858.52
2019-06-07T22:16:45.449Z,99858.13
2019-06-07T22:19:14.941Z,99855.02
2019-06-07T22:21:43.474Z,99859.73
2019-06-07T22:24:13.051Z,99862.08
2019-06-07T22:26:41.778Z,99860.73
2019-06-07T22:29:10.363Z,99863.18
2019-06-07T22:31:38.818Z,99859.69
2019-06-07T22:34:08.654Z,99869.11
2019-06-07T22:36:37.324Z,99873.17
2019-06-07T22:39:07.528Z,99872.06
2019-06-07T22:41:36.117Z,99873.98
2019-06-07T22:44:04.600Z,99868.44
2019-06-07T22:46:37.463Z,99871.74
2019-06-07T22:49:03.497Z,99877.45
2019-06-07T22:51:32.070Z,99872.83
2019-06-07T22:56:42.774Z,99873.82
2019-06-07T22:59:14.106Z,99875.33
2019-06-07T23:01:41.618Z,99871.83
2019-06-07T23:04:10.468Z,99873.45
2019-06-07T23:06:39.097Z,99868.45
2019-06-07T23:09:08.799Z,99865.81
2019-06-07T23:11:37.589Z,99865.13
2019-06-07T23:14:06.163Z,99860.22
2019-06-07T23:16:34.665Z,99858.55
2019-06-07T23:19:03.366Z,99852.32
2019-06-07T23:21:31.862Z,99851.47
2019-06-07T23:24:00.458Z,99849.09
2019-06-07T23:26:28.958Z,99851.81
2019-06-07T23:28:57.561Z,99852.16
2019-06-07T23:31:26.106Z,99855.95
2019-06-07T23:33:54.572Z,99851.69
2019-06-07T23:36:23.046Z,99851.56
2019-06-07T23:38:51.682Z,99843.84
2019-06-07T23:41:20.470Z,99847.83
2019-06-07T23:43:50.342Z,99847.75
2019-06-07T23:46:19.469Z,99849.00
2019-06-07T23:48:48.011Z,99850.20
2019-06-07T23:51:17.693Z,99846.66
2019-06-07T23:53:46.489Z,99846.42
2019-06-07T23:56:15.900Z,99843.44
2019-06-07T23:58:44.455Z,99834.44
